createdAt,value
2022-09-28T00:00:17.546Z,2.28
2022-09-28T00:02:44.207Z,2.45
2022-09-28T00:05:10.793Z,1.98
2022-09-28T00:07:37.386Z,2.05
2022-09-28T00:10:06.012Z,1.90
2022-09-28T00:12:32.648Z,2.25
2022-09-28T00:14:59.177Z,2.08
2022-09-28T00:17:25.818Z,1.98
2022-09-28T00:19:52.431Z,2.67
2022-09-28T00:22:19.086Z,1.92
2022-09-28T00:24:45.753Z,1.83
2022-09-28T00:27:13.741Z,1.95
2022-09-28T00:29:40.273Z,2.15
2022-09-28T00:32:10.255Z,1.90
2022-09-28T00:34:38.974Z,2.15
2022-09-28T00:37:06.892Z,1.65
2022-09-28T00:39:33.470Z,1.60
2022-09-28T00:42:00.068Z,2.50
2022-09-28T00:44:41.363Z,1.60
2022-09-28T00:47:19.833Z,1.90
2022-09-28T00:49:50.557Z,1.70
2022-09-28T00:52:22.636Z,1.40
2022-09-28T00:54:51.116Z,1.10
2022-09-28T00:57:18.052Z,1.60
2022-09-28T00:59:46.552Z,1.20
2022-09-28T01:02:13.132Z,1.10
2022-09-28T01:04:39.987Z,1.40
2022-09-28T01:07:08.786Z,1.17
2022-09-28T01:09:38.289Z,1.23
2022-09-28T01:12:05.301Z,1.40
2022-09-28T01:14:32.627Z,1.10
2022-09-28T01:17:07.800Z,1.10
2022-09-28T01:20:26.538Z,1.15
2022-09-28T01:23:19.782Z,1.60
2022-09-28T01:25:53.551Z,2.13
2022-09-28T01:28:25.499Z,1.30
2022-09-28T01:33:41.803Z,1.50
2022-09-28T01:36:13.344Z,0.90
2022-09-28T01:38:46.306Z,0.80
2022-09-28T01:41:14.376Z,1.00
2022-09-28T01:43:47.751Z,0.90
2022-09-28T01:46:18.458Z,0.90
2022-09-28T01:48:51.374Z,1.10
2022-09-28T01:51:24.989Z,1.10
2022-09-28T01:53:57.065Z,1.23
2022-09-28T01:56:29.449Z,1.00
2022-09-28T01:59:05.197Z,1.15
2022-09-28T02:01:38.967Z,1.00
2022-09-28T02:04:12.010Z,0.68
2022-09-28T02:06:43.102Z,0.77
2022-09-28T02:09:15.628Z,0.85
2022-09-28T02:11:49.339Z,0.80
2022-09-28T02:14:18.487Z,1.08
2022-09-28T02:16:49.302Z,1.17
2022-09-28T02:19:18.955Z,1.25
2022-09-28T02:21:53.981Z,1.53
2022-09-28T02:24:28.179Z,1.60
2022-09-28T02:26:58.969Z,1.30
2022-09-28T02:29:33.722Z,1.00
2022-09-28T02:32:01.105Z,1.10
2022-09-28T02:34:28.112Z,1.10
2022-09-28T02:36:54.755Z,1.20
2022-09-28T02:39:22.022Z,1.38
2022-09-28T02:42:01.186Z,1.52
2022-09-28T02:44:50.808Z,0.90
2022-09-28T02:47:31.307Z,0.88
2022-09-28T02:50:12.446Z,0.95
2022-09-28T02:52:56.373Z,1.20
2022-09-28T02:55:36.495Z,0.90
2022-09-28T02:58:16.614Z,1.00
2022-09-28T03:00:52.904Z,1.23
2022-09-28T03:03:27.715Z,0.95
2022-09-28T03:06:02.150Z,1.00
2022-09-28T03:08:39.387Z,0.93
2022-09-28T03:11:14.643Z,0.90
2022-09-28T03:13:42.865Z,0.90
2022-09-28T03:16:13.877Z,0.95
2022-09-28T03:18:42.169Z,0.90
2022-09-28T03:21:11.176Z,1.10
2022-09-28T03:23:38.222Z,1.05
2022-09-28T03:26:04.998Z,1.60
2022-09-28T03:28:31.643Z,1.65
2022-09-28T03:30:58.190Z,0.80
2022-09-28T03:33:26.458Z,1.20
2022-09-28T03:35:53.646Z,1.00
2022-09-28T03:38:20.524Z,1.15
2022-09-28T03:40:52.805Z,0.95
2022-09-28T03:43:20.030Z,1.50
2022-09-28T03:45:51.856Z,1.67
2022-09-28T03:48:24.483Z,1.63
2022-09-28T03:50:56.061Z,1.42
2022-09-28T03:53:23.733Z,2.10
2022-09-28T03:55:50.652Z,1.27
2022-09-28T03:58:18.979Z,1.73
2022-09-28T04:00:45.779Z,1.75
2022-09-28T04:03:12.410Z,1.23
2022-09-28T04:05:39.157Z,1.27
2022-09-28T04:08:07.040Z,1.20
2022-09-28T04:10:33.587Z,1.00
2022-09-28T04:13:00.356Z,1.33
2022-09-28T04:15:27.165Z,1.20
2022-09-28T04:17:53.671Z,0.90
2022-09-28T04:20:39.401Z,1.65
2022-09-28T04:25:38.640Z,1.25
2022-09-28T04:28:05.376Z,1.60
2022-09-28T04:30:32.029Z,1.48
2022-09-28T04:32:58.647Z,1.40
2022-09-28T04:35:27.990Z,1.73
2022-09-28T04:37:54.530Z,2.00
2022-09-28T04:40:22.974Z,2.60
2022-09-28T04:42:53.451Z,2.10
2022-09-28T04:45:20.000Z,2.47
2022-09-28T04:47:46.921Z,2.60
2022-09-28T04:50:30.198Z,2.38
2022-09-28T04:53:06.301Z,2.47
2022-09-28T04:55:34.334Z,2.30
2022-09-28T04:58:01.088Z,2.40
2022-09-28T05:00:27.871Z,2.55
2022-09-28T05:03:06.345Z,2.38
2022-09-28T05:05:58.978Z,2.42
2022-09-28T05:08:41.743Z,2.20
2022-09-28T05:11:11.976Z,2.40
2022-09-28T05:13:41.252Z,2.10
2022-09-28T05:16:09.232Z,3.33
2022-09-28T05:21:16.401Z,2.17
2022-09-28T05:23:47.029Z,2.63
2022-09-28T05:26:15.332Z,2.97
2022-09-28T05:28:42.616Z,2.30
2022-09-28T05:31:27.836Z,2.70
2022-09-28T05:34:17.109Z,2.70
2022-09-28T05:36:45.546Z,2.83
2022-09-28T05:39:12.129Z,2.78
2022-09-28T05:41:40.450Z,2.63
2022-09-28T05:44:07.042Z,3.95
2022-09-28T05:46:35.084Z,4.88
2022-09-28T05:49:02.037Z,3.58
2022-09-28T05:51:28.801Z,2.72
2022-09-28T05:53:55.909Z,2.60
2022-09-28T05:56:25.071Z,4.50
2022-09-28T05:58:53.846Z,2.53
2022-09-28T06:01:22.902Z,5.70
2022-09-28T06:03:49.546Z,3.10
2022-09-28T06:06:16.901Z,8.60
2022-09-28T06:08:45.817Z,6.18
2022-09-28T06:11:31.446Z,3.53
2022-09-28T06:14:03.120Z,3.13
2022-09-28T06:16:31.507Z,3.67
2022-09-28T06:18:58.159Z,4.90
2022-09-28T06:21:44.202Z,5.00
2022-09-28T06:24:10.903Z,4.45
2022-09-28T06:26:37.741Z,3.67
2022-09-28T06:29:06.670Z,3.70
2022-09-28T06:31:33.431Z,4.10
2022-09-28T06:34:00.401Z,4.35
2022-09-28T06:36:28.627Z,3.75
2022-09-28T06:38:55.213Z,3.50
2022-09-28T06:41:22.843Z,3.67
2022-09-28T06:43:49.774Z,3.22
2022-09-28T06:46:36.464Z,4.38
2022-09-28T06:49:21.958Z,3.65
2022-09-28T06:52:11.469Z,4.13
2022-09-28T06:54:56.539Z,7.35
2022-09-28T06:57:29.873Z,5.32
2022-09-28T06:59:56.758Z,3.55
2022-09-28T07:02:24.763Z,3.45
2022-09-28T07:05:14.176Z,4.35
2022-09-28T07:07:58.800Z,3.50
2022-09-28T07:10:52.981Z,3.00
2022-09-28T07:16:15.150Z,2.83
2022-09-28T07:18:43.117Z,2.90
2022-09-28T07:21:17.857Z,2.58
2022-09-28T07:23:53.959Z,2.58
2022-09-28T07:26:24.721Z,3.15
2022-09-28T07:28:57.291Z,2.72
2022-09-28T07:31:31.858Z,2.35
2022-09-28T07:34:18.594Z,2.35
2022-09-28T07:37:03.940Z,2.47
2022-09-28T07:39:30.534Z,2.78
2022-09-28T07:42:02.590Z,2.70
2022-09-28T07:44:30.650Z,2.40
2022-09-28T07:46:58.009Z,2.38
2022-09-28T07:49:39.013Z,2.00
2022-09-28T07:52:28.506Z,2.30
2022-09-28T07:55:21.388Z,2.92
2022-09-28T07:57:59.192Z,2.30
2022-09-28T08:00:38.787Z,2.13
2022-09-28T08:03:05.470Z,2.22
2022-09-28T08:05:34.584Z,2.83
2022-09-28T08:08:02.342Z,2.30
2022-09-28T08:10:29.618Z,3.97
2022-09-28T08:13:17.208Z,8.13
2022-09-28T08:16:19.830Z,8.68
2022-09-28T08:18:57.908Z,6.72
2022-09-28T08:21:27.610Z,3.38
2022-09-28T08:23:54.401Z,3.30
2022-09-28T08:26:21.050Z,3.30
2022-09-28T08:28:47.693Z,2.22
2022-09-28T08:31:40.161Z,2.33
2022-09-28T08:34:25.407Z,2.10
2022-09-28T08:37:19.341Z,2.50
2022-09-28T08:39:45.874Z,2.30
2022-09-28T08:42:32.030Z,2.20
2022-09-28T08:45:18.513Z,2.35
2022-09-28T08:48:17.527Z,2.08
2022-09-28T08:51:17.719Z,2.95
2022-09-28T08:54:06.888Z,1.80
2022-09-28T08:56:50.183Z,1.88
2022-09-28T08:59:19.809Z,1.65
2022-09-28T09:01:58.108Z,1.92
2022-09-28T09:04:27.254Z,2.00
2022-09-28T09:07:31.646Z,3.20
2022-09-28T09:10:18.426Z,1.65
2022-09-28T09:12:58.795Z,1.70
2022-09-28T09:15:35.759Z,2.00
2022-09-28T09:18:20.632Z,1.70
2022-09-28T09:21:10.860Z,1.63
2022-09-28T09:23:53.791Z,1.33
2022-09-28T09:26:34.987Z,1.20
2022-09-28T09:29:28.487Z,1.52
2022-09-28T09:32:16.532Z,1.02
2022-09-28T09:35:07.443Z,1.08
2022-09-28T09:38:09.103Z,1.45
2022-09-28T09:41:06.459Z,1.35
2022-09-28T09:44:11.133Z,0.90
2022-09-28T09:46:54.232Z,0.90
2022-09-28T09:49:36.143Z,1.00
2022-09-28T09:52:09.494Z,0.80
2022-09-28T09:54:40.442Z,1.17
2022-09-28T09:57:15.312Z,1.10
2022-09-28T09:59:50.320Z,1.25
2022-09-28T10:02:27.726Z,1.10
2022-09-28T10:05:19.773Z,0.85
2022-09-28T10:07:52.603Z,0.75
2022-09-28T10:10:26.465Z,0.70
2022-09-28T10:12:57.117Z,0.95
2022-09-28T10:15:27.974Z,0.90
2022-09-28T10:18:18.759Z,1.00
2022-09-28T10:21:23.525Z,0.70
2022-09-28T10:23:56.438Z,1.20
2022-09-28T10:26:28.803Z,1.02
2022-09-28T10:29:00.607Z,1.65
2022-09-28T10:31:37.702Z,0.75
2022-09-28T10:34:10.560Z,1.02
2022-09-28T10:36:47.240Z,1.00
2022-09-28T10:39:36.023Z,0.98
2022-09-28T10:42:07.482Z,0.80
2022-09-28T10:44:43.565Z,0.90
2022-09-28T10:47:27.476Z,0.85
2022-09-28T10:49:55.889Z,0.77
2022-09-28T10:52:33.282Z,0.90
2022-09-28T10:55:01.455Z,1.30
2022-09-28T10:57:32.598Z,1.08
2022-09-28T11:00:06.149Z,0.90
2022-09-28T11:02:41.566Z,1.20
2022-09-28T11:05:21.983Z,1.35
2022-09-28T11:10:22.476Z,0.88
2022-09-28T11:12:51.901Z,0.90
2022-09-28T11:15:22.135Z,0.85
2022-09-28T11:17:52.899Z,1.00
2022-09-28T11:20:31.995Z,1.10
2022-09-28T11:23:16.323Z,0.95
2022-09-28T11:25:43.819Z,1.20
2022-09-28T11:28:23.168Z,1.15
2022-09-28T11:30:52.573Z,0.80
2022-09-28T11:33:32.817Z,1.00
2022-09-28T11:36:31.776Z,0.98
2022-09-28T11:39:09.205Z,1.13
2022-09-28T11:42:16.504Z,0.90
2022-09-28T11:44:46.759Z,0.90
2022-09-28T11:47:37.425Z,0.90
2022-09-28T11:50:14.338Z,0.77
2022-09-28T11:52:49.326Z,0.80
2022-09-28T11:55:24.138Z,0.85
2022-09-28T11:58:00.363Z,0.85
2022-09-28T12:00:29.498Z,0.82
2022-09-28T12:03:06.814Z,0.77
2022-09-28T12:05:39.734Z,0.80
2022-09-28T12:08:13.268Z,0.70
2022-09-28T12:11:00.132Z,0.85
2022-09-28T12:13:49.379Z,0.70
2022-09-28T12:16:46.873Z,0.63
2022-09-28T12:19:16.801Z,0.68
2022-09-28T12:21:48.954Z,0.80
2022-09-28T12:24:19.802Z,0.65
2022-09-28T12:26:52.094Z,1.70
2022-09-28T12:29:22.706Z,0.63
2022-09-28T12:32:00.841Z,1.60
2022-09-28T12:34:27.508Z,4.45
2022-09-28T12:37:08.839Z,1.30
2022-09-28T12:39:58.122Z,1.38
2022-09-28T12:42:40.740Z,2.42
2022-09-28T12:45:23.456Z,0.90
2022-09-28T12:48:16.460Z,0.80
2022-09-28T12:51:00.562Z,1.83
2022-09-28T12:53:45.642Z,2.00
2022-09-28T12:56:26.050Z,1.10
2022-09-28T12:59:03.671Z,1.05
2022-09-28T13:01:50.137Z,0.95
2022-09-28T13:04:43.447Z,0.80
2022-09-28T13:07:19.249Z,0.80
2022-09-28T13:09:58.469Z,0.90
2022-09-28T13:12:36.764Z,1.08
2022-09-28T13:15:37.520Z,0.80
2022-09-28T13:18:12.413Z,1.10
2022-09-28T13:21:07.043Z,1.67
2022-09-28T13:23:37.634Z,0.80
2022-09-28T13:26:14.963Z,0.80
2022-09-28T13:28:44.235Z,1.05
2022-09-28T13:31:12.248Z,1.23
2022-09-28T13:33:43.042Z,1.08
2022-09-28T13:36:37.314Z,0.70
2022-09-28T13:39:03.951Z,1.17
2022-09-28T13:41:36.076Z,1.10
2022-09-28T13:44:33.736Z,2.35
2022-09-28T13:47:26.086Z,2.03
2022-09-28T13:50:03.574Z,3.08
2022-09-28T13:52:43.312Z,1.10
2022-09-28T13:55:22.286Z,0.93
2022-09-28T13:57:55.485Z,0.75
2022-09-28T14:00:28.289Z,0.88
2022-09-28T14:02:59.103Z,0.80
2022-09-28T14:05:44.029Z,1.00
2022-09-28T14:08:27.049Z,1.00
2022-09-28T14:10:55.742Z,1.10
2022-09-28T14:14:01.880Z,0.95
2022-09-28T14:16:30.620Z,0.93
2022-09-28T14:19:02.777Z,1.00
2022-09-28T14:21:55.427Z,0.90
2022-09-28T14:24:31.688Z,1.00
2022-09-28T14:27:18.232Z,1.10
2022-09-28T14:29:50.693Z,1.25
2022-09-28T14:32:23.249Z,1.10
2022-09-28T14:34:56.827Z,1.30
2022-09-28T14:37:28.707Z,1.10
2022-09-28T14:39:55.343Z,1.10
2022-09-28T14:42:24.495Z,1.13
2022-09-28T14:45:33.309Z,1.30
2022-09-28T14:48:17.843Z,1.52
2022-09-28T14:50:44.657Z,1.40
2022-09-28T14:53:13.550Z,1.30
2022-09-28T14:55:47.087Z,1.20
2022-09-28T14:58:18.978Z,1.48
2022-09-28T15:00:49.972Z,1.40
2022-09-28T15:03:17.960Z,1.20
2022-09-28T15:05:46.022Z,1.48
2022-09-28T15:08:13.155Z,1.05
2022-09-28T15:10:45.735Z,1.00
2022-09-28T15:13:22.207Z,1.17
2022-09-28T15:15:53.657Z,1.30
2022-09-28T15:18:47.723Z,1.30
2022-09-28T15:21:14.389Z,1.15
2022-09-28T15:23:42.647Z,1.33
2022-09-28T15:26:22.182Z,1.20
2022-09-28T15:28:48.830Z,1.13
2022-09-28T15:31:19.826Z,1.20
2022-09-28T15:33:46.776Z,1.20
2022-09-28T15:36:19.618Z,1.40
2022-09-28T15:38:57.067Z,1.40
2022-09-28T15:41:25.245Z,1.08
2022-09-28T15:44:07.821Z,1.35
2022-09-28T15:46:39.439Z,1.30
2022-09-28T15:49:07.423Z,1.48
2022-09-28T15:51:51.043Z,1.20
2022-09-28T15:54:23.750Z,1.40
2022-09-28T15:56:51.817Z,1.63
2022-09-28T15:59:25.801Z,1.88
2022-09-28T16:02:14.820Z,5.65
2022-09-28T16:04:58.525Z,8.30
2022-09-28T16:07:33.801Z,4.97
2022-09-28T16:10:27.468Z,10.60
2022-09-28T16:12:57.131Z,2.30
2022-09-28T16:15:27.628Z,24.77
2022-09-28T16:17:58.096Z,8.18
2022-09-28T16:20:29.912Z,5.00
2022-09-28T16:22:59.490Z,5.78
2022-09-28T16:25:27.214Z,3.33
2022-09-28T16:27:55.573Z,6.05
2022-09-28T16:30:24.501Z,2.55
2022-09-28T16:32:54.099Z,1.75
2022-09-28T16:35:25.485Z,2.28
2022-09-28T16:38:11.291Z,2.50
2022-09-28T16:40:42.265Z,8.57
2022-09-28T16:43:16.974Z,7.32
2022-09-28T16:45:43.620Z,0.90
2022-09-28T16:48:14.107Z,1.65
2022-09-28T16:50:42.012Z,6.57
2022-09-28T16:53:14.103Z,1.90
2022-09-28T16:55:41.443Z,0.80
2022-09-28T16:58:08.397Z,0.85
2022-09-28T17:00:35.130Z,0.60
2022-09-28T17:03:01.684Z,4.57
2022-09-28T17:05:28.262Z,2.33
2022-09-28T17:08:00.183Z,2.38
2022-09-28T17:10:45.080Z,1.45
2022-09-28T17:13:23.001Z,4.00
2022-09-28T17:15:49.729Z,7.80
2022-09-28T17:18:18.090Z,2.80
2022-09-28T17:20:48.053Z,3.53
2022-09-28T17:23:16.268Z,10.15
2022-09-28T17:25:43.677Z,10.70
2022-09-28T17:28:19.323Z,10.63
2022-09-28T17:30:45.993Z,4.15
2022-09-28T17:33:12.524Z,3.30
2022-09-28T17:35:39.907Z,2.00
2022-09-28T17:38:06.502Z,2.35
2022-09-28T17:40:34.552Z,6.45
2022-09-28T17:43:01.181Z,4.32
2022-09-28T17:45:30.278Z,1.92
2022-09-28T17:47:58.650Z,1.50
2022-09-28T17:50:27.292Z,1.20
2022-09-28T17:52:54.757Z,2.95
2022-09-28T17:55:23.402Z,1.40
2022-09-28T17:57:51.298Z,1.20
2022-09-28T18:00:18.583Z,1.20
2022-09-28T18:02:45.409Z,1.27
2022-09-28T18:05:12.631Z,1.40
2022-09-28T18:07:39.158Z,1.75
2022-09-28T18:10:06.539Z,1.80
2022-09-28T18:12:34.152Z,1.70
2022-09-28T18:15:02.132Z,1.75
2022-09-28T18:17:28.747Z,2.13
2022-09-28T18:19:55.362Z,1.55
2022-09-28T18:22:22.007Z,1.63
2022-09-28T18:24:48.799Z,1.98
2022-09-28T18:27:15.414Z,1.60
2022-09-28T18:29:44.477Z,1.70
2022-09-28T18:32:12.342Z,1.50
2022-09-28T18:34:38.988Z,1.55
2022-09-28T18:37:05.874Z,1.40
2022-09-28T18:39:34.503Z,2.50
2022-09-28T18:42:01.036Z,2.90
2022-09-28T18:44:27.764Z,2.28
2022-09-28T18:46:54.327Z,1.92
2022-09-28T18:49:22.890Z,1.88
2022-09-28T18:51:49.910Z,1.80
2022-09-28T18:54:16.942Z,1.73
2022-09-28T18:56:43.488Z,1.83
2022-09-28T18:59:12.324Z,1.50
2022-09-28T19:01:39.993Z,2.40
2022-09-28T19:04:08.483Z,2.47
2022-09-28T19:06:40.569Z,4.68
2022-09-28T19:09:08.274Z,2.30
2022-09-28T19:11:35.100Z,2.00
2022-09-28T19:14:02.135Z,2.45
2022-09-28T19:16:30.161Z,2.17
2022-09-28T19:18:57.691Z,2.13
2022-09-28T19:21:24.716Z,2.10
2022-09-28T19:23:52.759Z,2.20
2022-09-28T19:26:22.365Z,1.60
2022-09-28T19:28:49.561Z,1.50
2022-09-28T19:31:17.061Z,2.08
2022-09-28T19:33:43.618Z,3.67
2022-09-28T19:36:12.679Z,3.13
2022-09-28T19:38:40.321Z,4.25
2022-09-28T19:41:12.686Z,3.72
2022-09-28T19:43:39.485Z,3.80
2022-09-28T19:46:06.765Z,3.75
2022-09-28T19:48:34.396Z,2.50
2022-09-28T19:51:02.745Z,2.20
2022-09-28T19:53:31.760Z,2.30
2022-09-28T19:55:59.858Z,2.42
2022-09-28T19:58:32.030Z,4.82
2022-09-28T20:00:58.672Z,4.82
2022-09-28T20:03:25.586Z,4.18
2022-09-28T20:05:56.692Z,8.07
2022-09-28T20:08:23.320Z,10.82
2022-09-28T20:10:50.042Z,10.75
2022-09-28T20:13:16.647Z,12.65
2022-09-28T20:15:44.815Z,8.70
2022-09-28T20:18:11.508Z,8.00
2022-09-28T20:20:38.404Z,4.43
2022-09-28T20:23:05.206Z,3.83
2022-09-28T20:25:31.757Z,5.20
2022-09-28T20:27:58.425Z,4.07
2022-09-28T20:30:25.062Z,4.85
2022-09-28T20:32:53.023Z,5.00
2022-09-28T20:35:32.272Z,3.67
2022-09-28T20:37:59.745Z,3.60
2022-09-28T20:40:26.339Z,3.58
2022-09-28T20:42:53.608Z,3.50
2022-09-28T20:45:20.209Z,4.10
2022-09-28T20:47:46.798Z,4.03
2022-09-28T20:50:14.941Z,3.15
2022-09-28T20:52:41.729Z,2.80
2022-09-28T20:55:08.708Z,2.70
2022-09-28T20:57:35.349Z,3.60
2022-09-28T21:00:01.895Z,3.92
2022-09-28T21:02:28.842Z,3.15
2022-09-28T21:04:55.366Z,3.05
2022-09-28T21:07:23.327Z,2.75
2022-09-28T21:09:49.856Z,4.90
2022-09-28T21:12:16.613Z,2.60
2022-09-28T21:14:43.151Z,2.80
2022-09-28T21:17:09.801Z,3.92
2022-09-28T21:19:36.383Z,3.40
2022-09-28T21:22:03.004Z,2.88
2022-09-28T21:24:30.995Z,2.88
2022-09-28T21:26:57.620Z,2.33
2022-09-28T21:29:24.109Z,2.65
2022-09-28T21:31:50.894Z,2.63
2022-09-28T21:34:19.773Z,2.90
2022-09-28T21:36:47.501Z,3.03
2022-09-28T21:39:14.372Z,3.47
2022-09-28T21:41:42.317Z,3.10
2022-09-28T21:44:09.164Z,3.00
2022-09-28T21:46:36.559Z,3.30
2022-09-28T21:49:05.441Z,3.53
2022-09-28T21:51:32.431Z,3.38
2022-09-28T21:53:59.234Z,3.22
2022-09-28T21:56:26.650Z,3.33
2022-09-28T21:58:54.549Z,2.45
2022-09-28T22:01:23.278Z,2.53
2022-09-28T22:03:52.044Z,2.67
2022-09-28T22:06:20.346Z,2.17
2022-09-28T22:08:48.002Z,2.40
2022-09-28T22:11:17.007Z,2.42
2022-09-28T22:13:46.491Z,2.78
2022-09-28T22:16:16.940Z,2.20
2022-09-28T22:18:44.539Z,2.35
2022-09-28T22:21:14.195Z,2.60
2022-09-28T22:23:41.347Z,2.67
2022-09-28T22:26:09.980Z,2.53
2022-09-28T22:28:37.107Z,2.60
2022-09-28T22:31:04.444Z,2.40
2022-09-28T22:33:32.381Z,3.45
2022-09-28T22:35:58.856Z,2.60
2022-09-28T22:38:25.459Z,2.38
2022-09-28T22:40:54.543Z,2.20
2022-09-28T22:43:22.025Z,2.92
2022-09-28T22:45:48.646Z,2.45
2022-09-28T22:48:15.590Z,2.28
2022-09-28T22:50:50.151Z,2.33
2022-09-28T22:53:16.967Z,2.30
2022-09-28T22:55:43.599Z,2.75
2022-09-28T22:58:10.508Z,2.72
2022-09-28T23:00:37.152Z,2.53
2022-09-28T23:03:04.093Z,2.90
2022-09-28T23:05:30.946Z,2.80
2022-09-28T23:07:58.942Z,3.22
2022-09-28T23:10:25.435Z,3.03
2022-09-28T23:12:53.302Z,3.40
2022-09-28T23:15:19.797Z,2.60
2022-09-28T23:17:50.606Z,3.15
2022-09-28T23:20:17.227Z,2.97
2022-09-28T23:22:45.813Z,3.00
2022-09-28T23:25:14.591Z,3.40
2022-09-28T23:27:45.075Z,3.63
2022-09-28T23:30:12.165Z,3.30
2022-09-28T23:32:38.657Z,3.67
2022-09-28T23:35:06.333Z,3.08
2022-09-28T23:37:32.887Z,3.05
2022-09-28T23:39:59.618Z,2.47
2022-09-28T23:42:27.491Z,2.70
2022-09-28T23:44:54.115Z,3.60
2022-09-28T23:47:21.156Z,2.80
2022-09-28T23:49:47.769Z,3.05
2022-09-28T23:52:14.279Z,2.67
2022-09-28T23:54:40.916Z,2.70
2022-09-28T23:57:07.457Z,3.05
2022-09-28T23:59:35.375Z,2.97
